Time;durP1;ratioP1;P1;durP2;ratioP2;P2;SDS_P1;SDS_P2;PMS_P1;PMS_P2;Temp;Humidity;BMP_temperature;BMP_pressure;BME280_temperature;BME280_humidity;BME280_pressure;Samples;Min_cycle;Max_cycle;Signal;HPM_P1;HPM_P2
2022/08/25 00:00:48;;;;;;;24.45;22.15;;;21.60;99.90;;;;;;5028150;28;20033;-77
2022/08/25 00:03:15;;;;;;;23.42;20.92;;;21.60;99.90;;;;;;5042890;28;20041;-77
2022/08/25 00:05:41;;;;;;;24.60;22.20;;;21.60;99.90;;;;;;5045842;28;20544;-78
2022/08/25 00:08:07;;;;;;;21.77;19.55;;;21.50;99.90;;;;;;5029138;28;20136;-77
2022/08/25 00:10:35;;;;;;;23.30;20.17;;;21.50;99.90;;;;;;5025037;28;20037;-78
2022/08/25 00:13:01;;;;;;;21.73;19.52;;;21.50;99.90;;;;;;5033625;28;20037;-76
2022/08/25 00:15:30;;;;;;;25.25;22.75;;;21.40;99.90;;;;;;5030760;28;20033;-78
2022/08/25 00:17:56;;;;;;;22.10;20.10;;;21.40;99.90;;;;;;5013441;28;20033;-78
2022/08/25 00:20:24;;;;;;;25.48;22.83;;;21.40;99.90;;;;;;5022228;28;20044;-78
2022/08/25 00:22:50;;;;;;;25.27;22.80;;;21.40;99.90;;;;;;5025053;28;20065;-77
2022/08/25 00:25:16;;;;;;;23.73;21.63;;;21.40;99.90;;;;;;5007120;28;20107;-77
2022/08/25 00:27:42;;;;;;;22.77;20.50;;;21.50;99.90;;;;;;5019351;28;20048;-77
2022/08/25 00:30:09;;;;;;;22.17;19.98;;;21.40;99.90;;;;;;5006817;28;20041;-78
2022/08/25 00:32:35;;;;;;;26.42;23.80;;;21.40;99.90;;;;;;5025380;28;20037;-78
2022/08/25 00:35:02;;;;;;;27.20;24.48;;;21.40;99.90;;;;;;5008546;28;20045;-77
2022/08/25 00:37:27;;;;;;;27.02;24.27;;;21.40;99.90;;;;;;5034878;28;20272;-78
2022/08/25 00:39:55;;;;;;;27.08;24.42;;;21.40;99.90;;;;;;5025489;28;20030;-77
2022/08/25 00:42:22;;;;;;;25.05;22.80;;;21.40;99.90;;;;;;5023843;28;20045;-77
2022/08/25 00:44:48;;;;;;;25.40;23.10;;;21.30;99.90;;;;;;5008768;28;20049;-78
2022/08/25 00:47:14;;;;;;;26.70;24.15;;;21.30;99.90;;;;;;5010901;28;20142;-78
2022/08/25 00:49:57;;;;;;;27.67;24.98;;;21.30;99.90;;;;;;5006493;28;20048;-76
2022/08/25 00:52:41;;;;;;;27.33;24.77;;;21.30;99.90;;;;;;5006911;28;20029;-76
2022/08/25 00:55:17;;;;;;;27.20;24.58;;;21.30;99.90;;;;;;5021411;28;20110;-77
2022/08/25 00:57:50;;;;;;;28.33;25.35;;;21.30;99.90;;;;;;5008124;28;20045;-77
2022/08/25 01:00:25;;;;;;;23.88;21.45;;;21.20;99.90;;;;;;5020425;28;20064;-78
2022/08/25 01:02:51;;;;;;;26.05;23.40;;;21.20;99.90;;;;;;5024083;28;20034;-78
2022/08/25 01:05:18;;;;;;;26.83;24.15;;;21.20;99.90;;;;;;5030327;28;20039;-78
2022/08/25 01:07:44;;;;;;;26.13;23.52;;;21.20;99.90;;;;;;5018043;28;20044;-77
2022/08/25 01:10:12;;;;;;;23.30;20.90;;;21.20;99.90;;;;;;5033778;28;20041;-78
2022/08/25 01:12:39;;;;;;;24.95;22.45;;;21.10;99.90;;;;;;5018497;28;20067;-78
2022/08/25 01:15:10;;;;;;;23.23;20.90;;;21.10;99.90;;;;;;5022670;28;20037;-77
2022/08/25 01:17:47;;;;;;;24.20;21.63;;;21.10;99.90;;;;;;5022448;28;20069;-76
2022/08/25 01:20:13;;;;;;;20.48;18.50;;;21.10;99.90;;;;;;5017314;28;20029;-77
2022/08/25 01:22:39;;;;;;;21.70;18.92;;;21.00;99.90;;;;;;5015600;28;20061;-77
2022/08/25 01:25:32;;;;;;;22.83;20.50;;;21.00;99.90;;;;;;5011743;28;20082;-76
2022/08/25 01:27:57;;;;;;;22.70;20.55;;;21.00;99.90;;;;;;5026774;28;20049;-77
2022/08/25 01:30:25;;;;;;;21.08;18.85;;;21.00;99.90;;;;;;4986488;28;20041;-76
2022/08/25 01:32:50;;;;;;;22.98;20.40;;;21.00;99.90;;;;;;5017843;28;20041;-77
2022/08/25 01:35:16;;;;;;;23.70;21.15;;;20.90;99.90;;;;;;5034622;28;20037;-77
2022/08/25 01:37:42;;;;;;;24.08;19.60;;;20.90;99.90;;;;;;5019575;28;20037;-77
2022/08/25 01:40:08;;;;;;;23.55;20.73;;;20.90;99.90;;;;;;5026124;28;20561;-77
2022/08/25 01:42:59;;;;;;;21.92;19.83;;;20.90;99.90;;;;;;5031541;28;20056;-78
2022/08/25 01:45:25;;;;;;;21.88;19.50;;;20.90;99.90;;;;;;5007203;28;20143;-78
2022/08/25 01:47:51;;;;;;;19.77;17.77;;;20.80;99.90;;;;;;5027526;28;20532;-77
2022/08/25 01:50:16;;;;;;;21.02;19.08;;;20.80;99.90;;;;;;5024062;28;20037;-77
2022/08/25 01:53:01;;;;;;;23.65;21.23;;;20.80;99.90;;;;;;5011151;28;20050;-77
2022/08/25 01:55:28;;;;;;;21.98;19.75;;;20.70;99.90;;;;;;5031812;28;20040;-78
2022/08/25 01:57:53;;;;;;;19.48;17.60;;;20.60;99.90;;;;;;5028496;28;20087;-77
2022/08/25 02:00:21;;;;;;;21.33;19.35;;;20.60;99.90;;;;;;5005616;28;20049;-77
2022/08/25 02:02:47;;;;;;;19.63;17.92;;;20.60;99.90;;;;;;5006863;28;20065;-78
2022/08/25 02:05:15;;;;;;;20.80;18.75;;;20.60;99.90;;;;;;4990795;28;20077;-78
2022/08/25 02:07:42;;;;;;;19.08;17.13;;;20.60;99.90;;;;;;5009433;28;20041;-78
2022/08/25 02:10:10;;;;;;;17.35;15.73;;;20.60;99.90;;;;;;5030402;28;20091;-78
2022/08/25 02:12:36;;;;;;;21.77;18.75;;;20.50;99.90;;;;;;5019588;28;20071;-76
2022/08/25 02:15:04;;;;;;;21.55;17.40;;;20.50;99.90;;;;;;5006516;28;20183;-77
2022/08/25 02:17:30;;;;;;;19.33;15.68;;;20.50;99.90;;;;;;5019707;28;20045;-77
2022/08/25 02:19:56;;;;;;;17.60;15.85;;;20.50;99.90;;;;;;5025515;28;20025;-78
2022/08/25 02:22:23;;;;;;;18.48;14.88;;;20.40;99.90;;;;;;5005286;28;20045;-77
2022/08/25 02:24:49;;;;;;;17.58;15.60;;;20.40;99.90;;;;;;5024328;28;20049;-78
2022/08/25 02:27:14;;;;;;;16.92;14.07;;;20.40;99.90;;;;;;5014619;28;20043;-78
2022/08/25 02:29:40;;;;;;;14.07;12.73;;;20.40;99.90;;;;;;5008657;28;20545;-78
2022/08/25 02:32:07;;;;;;;16.38;13.30;;;20.40;99.90;;;;;;5022787;28;20049;-78
2022/08/25 02:34:34;;;;;;;14.23;12.65;;;20.30;99.90;;;;;;5026882;28;20033;-77
2022/08/25 02:37:00;;;;;;;13.57;12.10;;;20.30;99.90;;;;;;5028714;28;20523;-78
2022/08/25 02:39:26;;;;;;;15.02;12.93;;;20.30;99.90;;;;;;5031473;28;20393;-78
2022/08/25 02:41:52;;;;;;;12.98;11.48;;;20.30;99.90;;;;;;5036582;28;20047;-77
2022/08/25 02:44:18;;;;;;;12.68;11.35;;;20.30;99.90;;;;;;4996101;28;20224;-76
2022/08/25 02:46:44;;;;;;;12.85;11.57;;;20.30;99.90;;;;;;5008860;28;20795;-76
2022/08/25 02:49:10;;;;;;;12.77;11.38;;;20.20;99.90;;;;;;4997274;28;20049;-76
2022/08/25 02:51:35;;;;;;;12.00;10.23;;;20.20;99.90;;;;;;5016945;28;20175;-78
2022/08/25 02:54:03;;;;;;;13.15;10.98;;;20.20;99.90;;;;;;5017671;28;20093;-78
2022/08/25 02:56:30;;;;;;;13.35;9.55;;;20.20;99.90;;;;;;5017398;28;20038;-78
2022/08/25 02:58:56;;;;;;;10.65;9.32;;;20.10;99.90;;;;;;5002485;28;20046;-78
2022/08/25 03:01:22;;;;;;;12.43;9.18;;;20.10;99.90;;;;;;4995473;28;20053;-77
2022/08/25 03:03:50;;;;;;;9.93;8.88;;;20.10;99.90;;;;;;5016594;28;20087;-78
2022/08/25 03:06:21;;;;;;;10.98;9.88;;;20.10;99.90;;;;;;5003903;28;20500;-78
2022/08/25 03:08:47;;;;;;;9.40;8.50;;;20.10;99.90;;;;;;5041148;28;20047;-77
2022/08/25 03:11:13;;;;;;;11.20;9.20;;;20.10;99.90;;;;;;5026968;28;20109;-78
2022/08/25 03:13:39;;;;;;;8.75;7.55;;;20.10;99.90;;;;;;5028122;28;20033;-76
2022/08/25 03:16:07;;;;;;;9.95;8.20;;;20.00;99.90;;;;;;4985596;28;20586;-77
2022/08/25 03:18:33;;;;;;;10.50;7.28;;;20.00;99.90;;;;;;5011888;28;20042;-77
2022/08/25 03:20:59;;;;;;;10.18;7.03;;;20.00;99.90;;;;;;4990502;28;20045;-77
2022/08/25 03:23:25;;;;;;;9.57;6.70;;;19.90;99.90;;;;;;4989150;28;20762;-77
2022/08/25 03:28:38;;;;;;;8.38;6.70;;;20.00;99.90;;;;;;5018855;28;20049;-78
2022/08/25 03:31:04;;;;;;;7.78;6.00;;;19.90;99.90;;;;;;5026923;28;20038;-77
2022/08/25 03:33:30;;;;;;;7.82;6.70;;;19.90;99.90;;;;;;4995091;28;20122;-78
2022/08/25 03:35:57;;;;;;;10.60;6.63;;;19.90;99.90;;;;;;5016043;28;20083;-78
2022/08/25 03:38:24;;;;;;;8.10;6.13;;;19.90;99.90;;;;;;5018812;28;22309;-78
2022/08/25 03:40:50;;;;;;;9.90;6.93;;;19.80;99.90;;;;;;5041680;28;20180;-78
2022/08/25 03:43:17;;;;;;;10.65;5.95;;;19.90;99.90;;;;;;5026663;28;20507;-78
2022/08/25 03:45:44;;;;;;;9.68;6.10;;;19.80;99.90;;;;;;5034474;28;20042;-76
2022/08/25 03:48:10;;;;;;;9.73;5.60;;;19.80;99.90;;;;;;5019539;28;20033;-77
2022/08/25 03:50:42;;;;;;;6.50;5.70;;;19.80;99.90;;;;;;5039683;28;20032;-76
2022/08/25 03:53:07;;;;;;;7.70;5.72;;;19.80;99.90;;;;;;5039725;28;20073;-76
2022/08/25 03:55:33;;;;;;;7.63;5.80;;;19.70;99.90;;;;;;5018103;28;20639;-76
2022/08/25 03:57:59;;;;;;;7.55;5.13;;;19.70;99.90;;;;;;4987033;28;20055;-78
2022/08/25 04:00:24;;;;;;;8.35;5.53;;;19.70;99.90;;;;;;5025534;28;20045;-78
2022/08/25 04:02:50;;;;;;;8.65;5.13;;;19.70;99.90;;;;;;4988802;28;20052;-78
2022/08/25 04:05:16;;;;;;;8.68;5.88;;;19.70;99.90;;;;;;5014514;28;20119;-76
2022/08/25 04:07:42;;;;;;;9.15;6.13;;;19.70;99.90;;;;;;5017353;28;20042;-77
2022/08/25 04:10:10;;;;;;;8.23;5.53;;;19.60;99.90;;;;;;5022165;28;20038;-76
2022/08/25 04:12:36;;;;;;;8.13;5.70;;;19.60;99.90;;;;;;4996906;28;20045;-78
2022/08/25 04:15:05;;;;;;;9.50;5.30;;;19.60;99.90;;;;;;4990869;28;20140;-77
2022/08/25 04:17:31;;;;;;;8.27;5.50;;;19.60;99.90;;;;;;5034498;28;20144;-77
2022/08/25 04:19:56;;;;;;;6.53;5.20;;;19.50;99.90;;;;;;5020419;28;20132;-78
2022/08/25 04:22:22;;;;;;;8.27;5.13;;;19.60;99.90;;;;;;5006973;28;20053;-77
2022/08/25 04:24:48;;;;;;;7.10;5.43;;;19.50;99.90;;;;;;4985212;28;20045;-78
2022/08/25 04:27:14;;;;;;;6.18;5.05;;;19.50;99.90;;;;;;5013531;28;20053;-78
2022/08/25 04:29:40;;;;;;;6.28;4.85;;;19.50;99.90;;;;;;5014756;28;20074;-77
2022/08/25 04:32:06;;;;;;;10.93;4.90;;;19.40;99.90;;;;;;5006163;28;20041;-76
2022/08/25 04:34:32;;;;;;;10.90;5.00;;;19.40;99.90;;;;;;5002377;28;20585;-76
2022/08/25 04:37:01;;;;;;;8.38;4.90;;;19.40;99.90;;;;;;5032406;28;20128;-78
2022/08/25 04:39:27;;;;;;;7.07;4.97;;;19.40;99.90;;;;;;5027675;28;20156;-78
2022/08/25 04:41:52;;;;;;;5.95;5.35;;;19.40;99.90;;;;;;5028461;28;20119;-78
2022/08/25 04:44:18;;;;;;;6.43;4.85;;;19.40;99.90;;;;;;5025329;28;20768;-77
2022/08/25 04:46:44;;;;;;;9.13;5.15;;;19.40;99.90;;;;;;5029053;28;20056;-78
2022/08/25 04:49:10;;;;;;;8.73;5.53;;;19.40;99.90;;;;;;5018152;28;20048;-77
2022/08/25 04:51:39;;;;;;;9.23;4.53;;;19.40;99.90;;;;;;5027121;28;20056;-77
2022/08/25 04:54:08;;;;;;;10.07;5.53;;;19.30;99.90;;;;;;5032843;28;20033;-76
2022/08/25 04:56:34;;;;;;;7.47;5.03;;;19.30;99.90;;;;;;5018113;28;20116;-78
2022/08/25 04:59:12;;;;;;;7.43;4.68;;;19.40;99.90;;;;;;5011962;28;20566;-77
2022/08/25 05:01:40;;;;;;;8.98;4.72;;;19.30;99.90;;;;;;5014973;28;20034;-76
2022/08/25 05:04:08;;;;;;;8.40;5.50;;;19.30;99.90;;;;;;4998873;28;20056;-76
2022/08/25 05:06:34;;;;;;;8.30;4.40;;;19.30;99.90;;;;;;5014165;28;20049;-77
2022/08/25 05:09:02;;;;;;;7.38;4.90;;;19.30;99.90;;;;;;5003664;28;20509;-77
2022/08/25 05:11:28;;;;;;;10.85;4.93;;;19.30;99.90;;;;;;5018803;28;20689;-78
2022/08/25 05:13:55;;;;;;;8.07;5.07;;;19.30;99.90;;;;;;5013385;28;20037;-78
2022/08/25 05:16:23;;;;;;;8.50;5.10;;;19.30;99.90;;;;;;5008395;28;20075;-77
2022/08/25 05:18:49;;;;;;;7.22;5.65;;;19.30;99.90;;;;;;4981236;28;20042;-80
2022/08/25 05:21:26;;;;;;;8.13;5.47;;;19.30;99.90;;;;;;5018516;28;20459;-80
2022/08/25 05:23:56;;;;;;;10.07;5.45;;;19.30;99.90;;;;;;5013644;28;20029;-81
2022/08/25 05:26:25;;;;;;;8.18;5.80;;;19.30;99.90;;;;;;4994905;28;20033;-80
2022/08/25 05:28:52;;;;;;;9.02;5.32;;;19.30;99.90;;;;;;5016596;28;20036;-80
2022/08/25 05:31:19;;;;;;;7.85;4.90;;;19.40;99.90;;;;;;5020149;28;20059;-80
2022/08/25 05:33:45;;;;;;;6.82;4.97;;;19.40;99.90;;;;;;5019536;28;20041;-80
2022/08/25 05:36:15;;;;;;;9.55;4.65;;;19.40;99.90;;;;;;5001026;28;20120;-78
2022/08/25 05:38:42;;;;;;;8.25;5.05;;;19.40;99.90;;;;;;5017953;28;20043;-79
2022/08/25 05:41:15;;;;;;;9.18;5.22;;;19.50;99.90;;;;;;5024886;28;20140;-79
2022/08/25 05:43:42;;;;;;;7.75;4.70;;;19.50;99.90;;;;;;5006953;28;20037;-80
2022/08/25 05:46:08;;;;;;;9.75;5.85;;;19.50;99.90;;;;;;5007860;28;20041;-77
2022/08/25 05:48:34;;;;;;;6.57;5.20;;;19.60;99.90;;;;;;4995218;28;20057;-77
2022/08/25 05:51:02;;;;;;;31.58;6.80;;;19.60;99.90;;;;;;4992768;28;20661;-81
2022/08/25 05:53:29;;;;;;;12.82;5.07;;;19.70;99.90;;;;;;5007320;28;20034;-81
2022/08/25 05:56:02;;;;;;;9.20;5.63;;;19.70;99.90;;;;;;5003548;28;20494;-77
2022/08/25 05:58:28;;;;;;;8.05;5.80;;;19.80;99.90;;;;;;5031552;23;20052;-76
2022/08/25 06:00:55;;;;;;;41.17;7.35;;;19.90;99.90;;;;;;4998111;28;20033;-78
2022/08/25 06:03:21;;;;;;;15.75;5.95;;;19.90;99.90;;;;;;5026291;28;20416;-80
2022/08/25 06:05:47;;;;;;;9.68;5.13;;;20.00;99.90;;;;;;5023311;28;20051;-79
2022/08/25 06:08:13;;;;;;;12.75;5.75;;;20.00;99.90;;;;;;5029602;28;20271;-80
2022/08/25 06:10:38;;;;;;;10.05;4.97;;;20.10;99.90;;;;;;5006364;28;20128;-80
2022/08/25 06:13:04;;;;;;;8.32;5.07;;;20.20;99.90;;;;;;5006406;28;20041;-80
2022/08/25 06:15:32;;;;;;;22.30;6.10;;;20.20;99.90;;;;;;5024496;28;20043;-79
2022/08/25 06:18:00;;;;;;;28.98;7.78;;;20.30;99.90;;;;;;5007965;28;20044;-82
2022/08/25 06:20:27;;;;;;;46.53;8.30;;;20.40;99.90;;;;;;5004707;28;20075;-81
2022/08/25 06:22:53;;;;;;;8.95;5.47;;;20.50;99.90;;;;;;5017475;28;20045;-82
2022/08/25 06:25:22;;;;;;;8.68;5.30;;;20.60;99.90;;;;;;5020102;28;20037;-81
2022/08/25 06:27:48;;;;;;;10.45;5.63;;;20.70;99.90;;;;;;5017170;28;20053;-81
2022/08/25 06:30:16;;;;;;;28.75;7.60;;;20.70;99.90;;;;;;5009105;28;20045;-82
2022/08/25 06:32:44;;;;;;;9.80;5.18;;;20.70;99.90;;;;;;5000086;28;20596;-81
2022/08/25 06:35:12;;;;;;;11.90;6.13;;;20.80;99.90;;;;;;5018035;28;20551;-82
2022/08/25 06:37:39;;;;;;;28.45;6.30;;;20.80;99.90;;;;;;5018983;28;20107;-83
2022/08/25 06:40:06;;;;;;;10.88;5.40;;;20.90;99.90;;;;;;4982026;28;20042;-82
2022/08/25 06:42:32;;;;;;;40.05;10.40;;;21.00;99.90;;;;;;4992011;28;20041;-82
2022/08/25 06:45:01;;;;;;;15.90;6.43;;;21.10;99.90;;;;;;5023784;28;20116;-82
2022/08/25 06:47:26;;;;;;;10.18;5.25;;;21.20;99.90;;;;;;5002178;28;20033;-84
2022/08/25 06:49:52;;;;;;;21.13;5.88;;;21.20;99.90;;;;;;4998849;28;20520;-81
2022/08/25 06:52:18;;;;;;;8.75;4.43;;;21.30;99.90;;;;;;5002073;28;20398;-82
2022/08/25 06:54:44;;;;;;;15.68;5.22;;;21.40;99.90;;;;;;5017938;28;20080;-80
2022/08/25 06:57:10;;;;;;;1084.97;175.40;;;21.50;99.90;;;;;;5019530;28;20500;-82
2022/08/25 06:59:38;;;;;;;95.50;18.33;;;21.60;99.90;;;;;;4994602;28;20128;-81
2022/08/25 07:02:04;;;;;;;50.53;9.80;;;21.70;99.90;;;;;;5022276;28;20052;-82
2022/08/25 07:04:31;;;;;;;8.98;5.25;;;21.80;99.90;;;;;;5003928;28;20140;-82
2022/08/25 07:06:57;;;;;;;19.25;5.70;;;21.90;99.90;;;;;;4983379;28;20057;-81
2022/08/25 07:09:23;;;;;;;16.90;6.75;;;22.00;99.90;;;;;;5003847;28;20421;-84
2022/08/25 07:11:49;;;;;;;10.50;5.07;;;22.10;99.90;;;;;;5018491;28;20044;-82
2022/08/25 07:14:16;;;;;;;7.65;4.25;;;22.20;99.90;;;;;;5027309;28;20049;-81
2022/08/25 07:16:43;;;;;;;9.43;4.20;;;22.30;99.80;;;;;;5023994;28;20041;-82
2022/08/25 07:19:10;;;;;;;7.63;4.63;;;22.40;99.60;;;;;;5014351;28;20482;-80
2022/08/25 07:21:38;;;;;;;8.52;4.70;;;22.50;99.40;;;;;;5020457;28;20096;-82
2022/08/25 07:24:10;;;;;;;8.23;4.60;;;22.70;99.30;;;;;;5022492;28;20496;-80
2022/08/25 07:26:37;;;;;;;10.90;4.53;;;22.80;99.10;;;;;;5037880;28;20413;-82
2022/08/25 07:29:08;;;;;;;18.60;7.65;;;22.90;99.20;;;;;;5005866;28;20042;-80
2022/08/25 07:31:34;;;;;;;9.35;4.55;;;23.00;99.00;;;;;;5023525;28;20045;-82
2022/08/25 07:36:44;;;;;;;10.98;3.78;;;23.20;98.60;;;;;;5012126;28;20033;-83
2022/08/25 07:39:10;;;;;;;6.18;4.05;;;23.30;98.40;;;;;;5030568;28;20107;-80
2022/08/25 07:41:38;;;;;;;6.68;4.05;;;23.40;98.50;;;;;;5028931;28;20091;-81
2022/08/25 07:44:05;;;;;;;6.53;4.00;;;23.60;98.00;;;;;;5015084;28;22330;-80
2022/08/25 07:46:32;;;;;;;9.30;4.43;;;23.70;97.80;;;;;;5025383;28;20046;-81
2022/08/25 07:48:58;;;;;;;5.90;3.70;;;23.80;97.80;;;;;;4979896;28;20038;-82
2022/08/25 07:51:24;;;;;;;6.38;3.75;;;24.00;98.00;;;;;;5005484;28;20128;-82
2022/08/25 07:53:50;;;;;;;5.32;3.55;;;24.00;97.60;;;;;;5014049;28;20516;-82
2022/08/25 07:56:16;;;;;;;7.20;3.70;;;24.10;97.40;;;;;;5011394;28;20033;-84
2022/08/25 07:58:43;;;;;;;9.32;4.55;;;24.30;97.20;;;;;;5027191;28;20079;-81
2022/08/25 08:01:18;;;;;;;6.30;4.00;;;24.40;97.30;;;;;;5024116;28;20068;-81
2022/08/25 08:03:44;;;;;;;7.75;4.45;;;24.50;97.40;;;;;;5022019;28;20068;-82
2022/08/25 08:06:12;;;;;;;6.28;4.63;;;24.60;97.00;;;;;;5022211;28;20060;-84
2022/08/25 08:08:43;;;;;;;8.88;3.80;;;24.70;96.90;;;;;;5027659;28;20037;-83
2022/08/25 08:11:18;;;;;;;9.05;3.55;;;24.80;97.00;;;;;;5018889;28;20096;-81
2022/08/25 08:13:45;;;;;;;6.65;3.47;;;25.00;96.80;;;;;;5031776;28;20567;-82
2022/08/25 08:16:13;;;;;;;7.60;3.60;;;25.10;96.70;;;;;;5010143;28;20041;-83
2022/08/25 08:18:39;;;;;;;8.02;3.78;;;25.20;96.50;;;;;;4998616;28;20037;-83
2022/08/25 08:21:14;;;;;;;8.15;3.47;;;25.30;96.20;;;;;;5011804;28;20520;-83
2022/08/25 08:23:40;;;;;;;5.43;3.22;;;25.40;96.20;;;;;;5015568;28;20055;-82
2022/08/25 08:26:47;;;;;;;7.90;3.33;;;25.50;95.60;;;;;;5007161;28;20476;-84
2022/08/25 08:29:14;;;;;;;6.05;3.72;;;25.60;95.90;;;;;;4984386;28;20050;-85
2022/08/25 08:31:43;;;;;;;5.38;3.17;;;25.80;96.10;;;;;;4971034;28;20283;-83
2022/08/25 08:34:14;;;;;;;7.18;3.83;;;25.90;96.00;;;;;;4995547;28;20157;-85
2022/08/25 08:36:40;;;;;;;7.68;3.53;;;26.10;95.20;;;;;;5010376;28;20042;-82
2022/08/25 08:39:06;;;;;;;7.20;3.15;;;26.20;95.40;;;;;;4991231;28;20038;-82
2022/08/25 08:44:49;;;;;;;7.68;3.40;;;26.30;93.90;;;;;;5023675;28;20087;-83
2022/08/25 08:47:33;;;;;;;6.28;3.30;;;26.30;93.60;;;;;;5026514;28;20033;-84
2022/08/25 08:50:15;;;;;;;5.05;2.70;;;26.50;93.60;;;;;;5008970;28;20492;-84
2022/08/25 08:53:07;;;;;;;6.50;3.08;;;26.60;93.60;;;;;;5008483;28;20060;-81
2022/08/25 08:55:41;;;;;;;7.57;3.47;;;26.80;93.20;;;;;;5019508;28;20084;-80
2022/08/25 08:58:34;;;;;;;4.68;2.80;;;26.80;92.70;;;;;;5025925;28;20033;-81
2022/08/25 09:01:00;;;;;;;5.15;3.05;;;26.90;93.20;;;;;;5027774;28;20417;-84
2022/08/25 09:03:49;;;;;;;6.70;3.28;;;27.10;93.60;;;;;;4993320;28;20042;-84
2022/08/25 09:06:36;;;;;;;8.23;3.08;;;27.30;92.90;;;;;;5010289;28;20029;-83
2022/08/25 09:09:05;;;;;;;3.92;2.95;;;27.40;92.70;;;;;;5028860;28;20041;-82
2022/08/25 09:12:13;;;;;;;7.57;2.88;;;27.40;92.20;;;;;;5027636;28;20045;-83
2022/08/25 09:15:04;;;;;;;5.25;2.60;;;27.50;91.00;;;;;;5021030;28;20188;-83
2022/08/25 09:17:36;;;;;;;5.95;2.80;;;27.60;90.80;;;;;;5030407;28;20041;-83
2022/08/25 09:20:33;;;;;;;1205.03;265.23;;;27.80;91.40;;;;;;5022042;28;20045;-83
2022/08/25 09:23:29;;;;;;;70.55;23.25;;;27.90;91.70;;;;;;5011361;28;20033;-80
2022/08/25 09:26:07;;;;;;;45.30;8.20;;;28.10;90.60;;;;;;5009388;28;20390;-84
2022/08/25 09:29:06;;;;;;;4.70;2.47;;;28.30;91.10;;;;;;5034821;28;20044;-83
2022/08/25 09:32:14;;;;;;;15.70;3.35;;;28.30;88.50;;;;;;5007840;28;20049;-83
2022/08/25 09:35:27;;;;;;;13.45;4.13;;;28.50;89.60;;;;;;5022081;28;20216;-81
2022/08/25 09:38:18;;;;;;;10.43;3.05;;;28.60;87.40;;;;;;5025847;28;20057;-82
2022/08/25 09:41:10;;;;;;;10.23;3.22;;;28.70;86.00;;;;;;5043522;28;20099;-83
2022/08/25 09:43:58;;;;;;;7.40;2.53;;;28.70;86.20;;;;;;5024371;28;20501;-83
2022/08/25 09:49:32;;;;;;;5.80;2.20;;;28.40;83.70;;;;;;5014414;28;20042;-84
2022/08/25 09:52:43;;;;;;;14.98;2.42;;;29.10;83.50;;;;;;5001175;28;20068;-82
2022/08/25 09:55:14;;;;;;;7.18;2.55;;;29.10;82.10;;;;;;5006994;28;20060;-81
2022/08/25 09:57:45;;;;;;;7.85;2.53;;;29.20;80.70;;;;;;5006813;28;20038;-82
2022/08/25 10:00:48;;;;;;;8.00;2.35;;;29.30;79.10;;;;;;5006638;28;20694;-81
2022/08/25 10:07:03;;;;;;;5.05;1.90;;;28.30;77.90;;;;;;4984293;28;20057;-82
2022/08/25 10:09:33;;;;;;;2.75;1.85;;;29.70;79.20;;;;;;5028834;28;20124;-85
2022/08/25 10:12:01;;;;;;;3.67;1.90;;;29.80;76.60;;;;;;5030636;28;20044;-84
2022/08/25 10:14:39;;;;;;;3.47;2.10;;;29.80;76.50;;;;;;5014715;28;20106;-83
2022/08/25 10:17:37;;;;;;;7.13;2.60;;;29.90;76.00;;;;;;5022168;28;20045;-84
2022/08/25 10:20:09;;;;;;;3.75;2.15;;;29.90;74.50;;;;;;5024701;28;20577;-82
2022/08/25 10:22:36;;;;;;;2.78;1.90;;;30.00;73.90;;;;;;5008781;28;20076;-83
2022/08/25 10:25:06;;;;;;;4.20;2.38;;;30.10;75.00;;;;;;5034054;28;20064;-79
2022/08/25 10:28:02;;;;;;;6.85;2.10;;;30.10;73.20;;;;;;5024960;28;20046;-83
2022/08/25 10:30:55;;;;;;;5.57;2.50;;;30.10;72.70;;;;;;5016164;28;20103;-83
2022/08/25 10:33:33;;;;;;;3.72;1.95;;;30.20;72.00;;;;;;4996526;28;20072;-82
2022/08/25 10:36:29;;;;;;;4.68;2.05;;;30.40;72.60;;;;;;5025750;28;20454;-83
2022/08/25 10:39:01;;;;;;;3.47;1.90;;;30.50;70.30;;;;;;5035965;28;20038;-83
2022/08/25 10:41:40;;;;;;;4.72;1.92;;;30.60;69.60;;;;;;5010313;28;20083;-83
2022/08/25 10:47:40;;;;;;;3.92;2.40;;;30.70;68.30;;;;;;5028153;28;20072;-83
2022/08/25 10:50:32;;;;;;;8.60;2.50;;;30.90;70.20;;;;;;5029395;28;20158;-84
2022/08/25 10:53:13;;;;;;;5.40;2.17;;;30.90;69.40;;;;;;5029707;28;20033;-84
2022/08/25 10:55:53;;;;;;;3.53;1.88;;;31.10;70.90;;;;;;5021795;28;20061;-84
2022/08/25 10:58:48;;;;;;;4.15;2.05;;;31.20;69.10;;;;;;5020998;28;20386;-83
2022/08/25 11:01:44;;;;;;;3.35;2.10;;;31.10;68.40;;;;;;5004744;28;20428;-83
2022/08/25 11:04:21;;;;;;;4.70;2.08;;;31.20;68.80;;;;;;5011210;28;20034;-83
2022/08/25 11:07:04;;;;;;;4.35;2.25;;;31.40;68.70;;;;;;5012346;28;20501;-83
2022/08/25 11:09:33;;;;;;;;;;;31.50;68.10;;;;;;5013384;28;20655;-82
2022/08/25 11:12:05;;;;;;;7.35;2.47;;;31.70;67.30;;;;;;5012084;28;19927;-83
2022/08/25 11:14:50;;;;;;;6.30;2.38;;;31.80;67.50;;;;;;5016209;28;20048;-85
2022/08/25 11:17:23;;;;;;;5.22;2.13;;;31.80;65.50;;;;;;5010826;28;20072;-84
2022/08/25 11:19:52;;;;;;;5.55;2.22;;;31.80;66.20;;;;;;5035076;28;20041;-88
2022/08/25 11:22:41;;;;;;;3.00;2.08;;;31.70;66.90;;;;;;5038647;28;20048;-82
2022/08/25 11:25:31;;;;;;;3.97;2.13;;;31.70;65.40;;;;;;5028409;28;20055;-82
2022/08/25 11:28:05;;;;;;;3.92;2.30;;;31.70;65.20;;;;;;5031557;28;20045;-85
2022/08/25 11:30:30;;;;;;;4.40;2.13;;;31.80;65.60;;;;;;5030379;28;20045;-82
2022/08/25 11:32:57;;;;;;;3.80;2.50;;;31.80;65.50;;;;;;5013246;28;20225;-83
2022/08/25 11:35:42;;;;;;;4.10;2.10;;;32.00;65.70;;;;;;4993551;28;20038;-83
2022/08/25 11:38:32;;;;;;;7.75;2.35;;;32.30;64.10;;;;;;5028740;28;20037;-83
2022/08/25 11:41:23;;;;;;;4.00;1.90;;;32.30;63.80;;;;;;5029343;28;20040;-83
2022/08/25 11:44:30;;;;;;;5.15;2.17;;;32.30;63.70;;;;;;5052869;28;20349;-81
2022/08/25 11:47:23;;;;;;;10.57;2.22;;;32.40;63.00;;;;;;4988879;28;20042;-82
2022/08/25 11:49:57;;;;;;;3.70;2.20;;;32.20;62.30;;;;;;5017611;28;22341;-83
2022/08/25 11:52:31;;;;;;;4.45;2.33;;;32.30;62.70;;;;;;5031458;28;20506;-84
2022/08/25 11:55:16;;;;;;;5.18;2.35;;;32.40;62.60;;;;;;5037583;28;20065;-84
2022/08/25 11:57:44;;;;;;;3.13;1.98;;;32.60;63.00;;;;;;5055472;22;20037;-79
2022/08/25 12:00:18;;;;;;;5.63;2.33;;;32.70;61.80;;;;;;5042157;28;20033;-79
2022/08/25 12:02:46;;;;;;;3.20;2.13;;;32.50;61.00;;;;;;5044272;28;20508;-79
2022/08/25 12:05:18;;;;;;;2.35;2.03;;;32.40;61.50;;;;;;5044924;28;20753;-78
2022/08/25 12:07:47;;;;;;;12.38;2.88;;;32.60;61.50;;;;;;5060299;28;20540;-79
2022/08/25 12:10:17;;;;;;;8.27;2.30;;;32.60;59.90;;;;;;5045916;28;20049;-79
2022/08/25 12:12:42;;;;;;;2.75;2.00;;;32.50;59.80;;;;;;5041323;28;20040;-79
2022/08/25 12:15:17;;;;;;;4.70;2.10;;;32.50;61.10;;;;;;5040760;28;20037;-79
2022/08/25 12:17:43;;;;;;;4.20;2.03;;;32.50;60.90;;;;;;5026160;28;20041;-78
2022/08/25 12:20:09;;;;;;;4.82;2.00;;;32.60;61.40;;;;;;5033753;28;20041;-79
2022/08/25 12:22:35;;;;;;;6.15;2.10;;;32.70;60.00;;;;;;5034097;28;20037;-78
2022/08/25 12:25:33;;;;;;;4.03;2.10;;;32.80;60.10;;;;;;5050678;28;20100;-79
2022/08/25 12:28:23;;;;;;;4.75;2.28;;;32.80;58.50;;;;;;5032424;28;20050;-79
2022/08/25 12:30:57;;;;;;;5.32;2.25;;;32.80;58.00;;;;;;5037478;28;20534;-79
2022/08/25 12:33:50;;;;;;;3.00;1.85;;;32.70;58.80;;;;;;5055681;28;20048;-79
2022/08/25 12:36:30;;;;;;;4.60;2.00;;;32.70;58.30;;;;;;5028369;28;20068;-79
2022/08/25 12:39:15;;;;;;;3.97;2.08;;;32.60;58.10;;;;;;5057826;28;20052;-79
2022/08/25 12:41:58;;;;;;;3.67;2.10;;;32.80;58.90;;;;;;5031769;28;20089;-79
2022/08/25 12:44:38;;;;;;;4.35;2.92;;;33.10;57.30;;;;;;5044230;28;20323;-79
2022/08/25 12:47:32;;;;;;;8.77;2.85;;;32.90;57.30;;;;;;5042866;28;20045;-78
2022/08/25 12:50:36;;;;;;;5.75;2.20;;;32.70;56.80;;;;;;5041810;28;20412;-79
2022/08/25 12:53:10;;;;;;;5.07;2.55;;;32.90;58.40;;;;;;5041867;28;20377;-79
2022/08/25 12:55:40;;;;;;;3.85;2.15;;;33.10;57.10;;;;;;5015321;28;20409;-79
2022/08/25 12:58:06;;;;;;;4.55;2.33;;;33.20;57.50;;;;;;5038461;28;20037;-79
2022/08/25 13:01:04;;;;;;;5.45;2.17;;;33.40;56.80;;;;;;5045682;28;20043;-81
2022/08/25 13:03:56;;;;;;;4.68;2.33;;;33.50;56.90;;;;;;5044382;28;20526;-81
2022/08/25 13:06:33;;;;;;;4.50;1.80;;;33.70;56.50;;;;;;5031762;28;20041;-79
2022/08/25 13:09:47;;;;;;;5.13;1.90;;;33.80;56.00;;;;;;5037846;28;20404;-80
2022/08/25 13:12:24;;;;;;;4.20;2.40;;;34.00;54.90;;;;;;5053879;28;20693;-79
2022/08/25 13:14:55;;;;;;;3.95;1.88;;;34.10;55.10;;;;;;5039333;28;20557;-81
2022/08/25 13:17:32;;;;;;;3.67;2.20;;;34.00;55.60;;;;;;5061601;28;20049;-80
2022/08/25 13:20:29;;;;;;;2.22;1.75;;;34.30;55.30;;;;;;5048496;28;20041;-80
2022/08/25 13:22:58;;;;;;;2.60;1.63;;;34.30;53.90;;;;;;5014406;28;20044;-79
2022/08/25 13:25:27;;;;;;;5.90;2.33;;;34.40;54.20;;;;;;5043810;28;20040;-79